Time;durP1;ratioP1;P1;durP2;ratioP2;P2;SDS_P1;SDS_P2;PMS_P1;PMS_P2;Temp;Humidity;BMP_temperature;BMP_pressure;BME280_temperature;BME280_humidity;BME280_pressure;Samples;Min_cycle;Max_cycle;Signal;HPM_P1;HPM_P2
2022/01/23 00:00:05;;;;;;;;;;;-2.10;76.60;;;;;;5024266;28;86474;-42
2022/01/23 00:02:33;;;;;;;;;;;-2.10;76.50;;;;;;5023887;28;87993;-42
2022/01/23 00:05:05;;;;;;;;;;;-2.10;76.60;;;;;;5023190;28;89418;-42
2022/01/23 00:07:32;;;;;;;;;;;-2.10;76.70;;;;;;5025922;28;87840;-42
2022/01/23 00:09:57;;;;;;;;;;;-2.20;76.90;;;;;;5023329;28;88793;-42
2022/01/23 00:12:25;;;;;;;;;;;-2.20;76.90;;;;;;5023422;28;87112;-42
2022/01/23 00:17:35;;;;;;;;;;;-2.20;76.70;;;;;;5023350;28;87146;-42
2022/01/23 00:20:06;;;;;;;;;;;-2.20;76.80;;;;;;5023403;28;86924;-42
2022/01/23 00:22:40;;;;;;;;;;;-2.20;77.10;;;;;;5021928;28;90114;-42
2022/01/23 00:30:34;;;;;;;;;;;-2.20;76.80;;;;;;5026232;28;86974;-42
2022/01/23 00:33:02;;;;;;;;;;;-2.20;76.90;;;;;;5022546;28;88010;-42
2022/01/23 00:35:28;;;;;;;;;;;-2.30;77.20;;;;;;5023208;28;89734;-42
2022/01/23 00:37:54;;;;;;;;;;;-2.20;77.00;;;;;;5023129;28;88155;-42
2022/01/23 00:40:20;;;;;;;;;;;-2.20;77.10;;;;;;5023238;28;87159;-42
2022/01/23 00:42:46;;;;;;;;;;;-2.20;77.10;;;;;;5022794;28;88940;-42
2022/01/23 00:47:40;;;;;;;;;;;-2.30;77.10;;;;;;5023067;28;87140;-42
2022/01/23 00:50:06;;;;;;;;;;;-2.30;77.40;;;;;;5023747;28;87205;-42
2022/01/23 00:52:32;;;;;;;;;;;-2.40;77.30;;;;;;5025394;28;89579;-42
2022/01/23 00:55:00;;;;;;;;;;;-2.30;77.20;;;;;;5022980;28;88997;-42
2022/01/23 00:57:26;;;;;;;;;;;-2.30;77.10;;;;;;5021781;28;89498;-42
2022/01/23 00:59:51;;;;;;;;;;;-2.30;77.30;;;;;;5022760;28;87141;-42
2022/01/23 01:02:17;;;;;;;;;;;-2.30;77.00;;;;;;5023229;28;86935;-42
2022/01/23 01:04:42;;;;;;;;;;;-2.30;77.10;;;;;;5022735;28;88403;-42
2022/01/23 01:07:08;;;;;;;;;;;-2.30;77.10;;;;;;5022831;28;87217;-42
2022/01/23 01:09:33;;;;;;;;;;;-2.30;77.20;;;;;;5025200;28;88002;-42
2022/01/23 01:12:05;;;;;;;;;;;-2.30;77.20;;;;;;5025556;28;88053;-42
2022/01/23 01:30:37;;;;;;;;;;;-2.40;77.30;;;;;;5025343;28;86949;-42
2022/01/23 01:33:28;;;;;;;;;;;-2.40;77.30;;;;;;5025337;28;89268;-42
2022/01/23 01:36:02;;;;;;;;;;;-2.40;77.40;;;;;;5024564;28;87141;-42
2022/01/23 01:38:28;;;;;;;;;;;-2.40;77.50;;;;;;5028352;28;89015;-42
2022/01/23 01:40:53;;;;;;;;;;;-2.40;77.40;;;;;;5025715;28;86375;-42
2022/01/23 01:43:19;;;;;;;;;;;-2.40;77.30;;;;;;5025772;28;87435;-42
2022/01/23 01:45:44;;;;;;;;;;;-2.40;77.50;;;;;;5025359;28;89533;-42
2022/01/23 01:48:12;;;;;;;;;;;-2.40;77.40;;;;;;5024975;28;88103;-42
2022/01/23 01:50:43;;;;;;;;;;;-2.50;77.50;;;;;;5025680;28;89825;-42
2022/01/23 01:53:11;;;;;;;;;;;-2.40;77.60;;;;;;5025246;28;88821;-42
2022/01/23 01:55:42;;;;;;;;;;;-2.40;77.40;;;;;;5025565;28;86862;-42
2022/01/23 01:58:21;;;;;;;;;;;-2.40;77.40;;;;;;5028004;28;88828;-42
2022/01/23 02:00:54;;;;;;;;;;;-2.50;77.50;;;;;;5025669;28;87127;-42
2022/01/23 02:08:31;;;;;;;;;;;-2.40;77.50;;;;;;5025427;28;86889;-42
2022/01/23 02:11:12;;;;;;;;;;;-2.50;77.50;;;;;;5025265;28;87612;-42
2022/01/23 02:13:45;;;;;;;;;;;-2.50;77.80;;;;;;5024312;28;90512;-42
2022/01/23 02:56:53;;;;;;;;;;;-2.70;78.30;;;;;;5012313;28;87154;-42
2022/01/23 02:59:28;;;;;;;;;;;-2.70;78.20;;;;;;5024978;28;86427;-42
2022/01/23 03:04:26;;;;;;;;;;;-2.70;78.10;;;;;;5023538;28;87887;-42
2022/01/23 03:07:11;;;;;;;;;;;-2.70;78.10;;;;;;5023540;28;88046;-42
2022/01/23 03:15:19;;;;;;;;;;;-2.70;78.30;;;;;;5001057;28;88407;-42
2022/01/23 03:31:56;;;;;;;;;;;-2.70;78.00;;;;;;5024025;28;87391;-42
2022/01/23 03:34:14;;;;;;;;;;;-2.80;78.20;;;;;;5025596;28;89528;-42
2022/01/23 03:36:39;;;;;;;;;;;-2.80;78.30;;;;;;5023912;28;89999;-42
2022/01/23 03:39:08;;;;;;;;;;;-2.80;78.20;;;;;;5023789;28;89495;-42
2022/01/23 03:41:35;;;;;;;;;;;-2.90;78.30;;;;;;5023113;28;87148;-42
2022/01/23 03:44:04;;;;;;;;;;;-2.90;78.40;;;;;;5023944;28;87481;-42
2022/01/23 03:51:46;;;;;;;;;;;-2.90;78.40;;;;;;5022756;28;86601;-42
2022/01/23 03:54:12;;;;;;;;;;;-2.90;78.30;;;;;;5023464;28;89980;-42
2022/01/23 03:56:37;;;;;;;;;;;-2.90;78.30;;;;;;5026407;28;86991;-43
2022/01/23 03:59:03;;;;;;;;;;;-2.90;78.50;;;;;;5022524;28;90952;-42
2022/01/23 04:01:28;;;;;;;;;;;-2.90;78.50;;;;;;5023239;28;87181;-43
2022/01/23 04:03:58;;;;;;;;;;;-3.00;78.50;;;;;;5023622;28;89247;-43
2022/01/23 04:06:23;;;;;;;;;;;-3.00;78.30;;;;;;5023344;28;89149;-42
2022/01/23 04:08:49;;;;;;;;;;;-3.00;78.20;;;;;;5023718;28;87123;-43
2022/01/23 04:11:15;;;;;;;;;;;-3.00;78.10;;;;;;5023374;28;89233;-43
2022/01/23 04:13:47;;;;;;;;;;;-2.90;78.30;;;;;;5023164;28;89468;-42
2022/01/23 04:33:13;;;;;;;;;;;-3.00;78.00;;;;;;5023283;28;86845;-42
2022/01/23 05:00:05;;;;;;;;;;;-3.10;78.40;;;;;;5026731;28;87036;-42
2022/01/23 05:05:07;;;;;;;;;;;-3.10;79.00;;;;;;5027544;28;87812;-42
2022/01/23 05:07:33;;;;;;;;;;;-3.10;78.40;;;;;;5026214;28;87833;-42
2022/01/23 05:09:59;;;;;;;;;;;-3.20;78.40;;;;;;5026318;28;88805;-42
2022/01/23 05:12:29;;;;;;;;;;;-3.20;78.60;;;;;;5026139;28;86982;-42
2022/01/23 05:14:55;;;;;;;;;;;-3.10;78.60;;;;;;5026237;28;88961;-42
2022/01/23 05:17:20;;;;;;;;;;;-3.20;78.70;;;;;;5025166;28;90075;-42
2022/01/23 05:19:46;;;;;;;;;;;-3.20;78.70;;;;;;5026219;28;87157;-42
2022/01/23 05:24:54;;;;;;;;;;;-3.20;78.70;;;;;;5025627;28;87942;-42
2022/01/23 05:27:23;;;;;;;;;;;-3.20;78.60;;;;;;5028921;28;86882;-42
2022/01/23 05:29:49;;;;;;;;;;;-3.20;78.60;;;;;;5024171;28;91134;-42
2022/01/23 05:32:15;;;;;;;;;;;-3.20;78.40;;;;;;5025964;28;87135;-43
2022/01/23 05:34:41;;;;;;;;;;;-3.20;78.40;;;;;;5026698;28;89088;-42
2022/01/23 05:37:07;;;;;;;;;;;-3.20;78.50;;;;;;5025517;28;89301;-42
2022/01/23 05:39:33;;;;;;;;;;;-3.20;78.60;;;;;;5025676;28;87136;-43
2022/01/23 05:42:06;;;;;;;;;;;-3.20;78.60;;;;;;5024290;28;88998;-43
2022/01/23 05:44:32;;;;;;;;;;;-3.20;78.70;;;;;;5025452;28;89236;-42
2022/01/23 05:46:57;;;;;;;;;;;-3.20;78.60;;;;;;5025762;28;87081;-43
2022/01/23 05:49:23;;;;;;;;;;;-3.30;78.60;;;;;;5028558;28;87435;-43
2022/01/23 05:51:48;;;;;;;;;;;-3.20;78.60;;;;;;5024229;28;86848;-42
2022/01/23 05:54:14;;;;;;;;;;;-3.30;78.70;;;;;;5025434;28;87354;-42
2022/01/23 05:56:39;;;;;;;;;;;-3.30;78.60;;;;;;5025224;28;89570;-43
2022/01/23 05:59:05;;;;;;;;;;;-3.30;78.70;;;;;;5026299;28;86398;-42
2022/01/23 06:01:30;;;;;;;;;;;-3.30;78.70;;;;;;5025580;28;88617;-42
2022/01/23 06:03:56;;;;;;;;;;;-3.30;78.70;;;;;;5024994;28;90147;-42
2022/01/23 06:06:21;;;;;;;;;;;-3.30;78.60;;;;;;5024750;28;88075;-42
2022/01/23 06:08:47;;;;;;;;;;;-3.30;78.60;;;;;;5027739;28;89919;-42
2022/01/23 06:11:12;;;;;;;;;;;-3.30;78.50;;;;;;5025401;28;87222;-42
2022/01/23 06:13:38;;;;;;;;;;;-3.30;78.70;;;;;;5025505;28;89126;-43
2022/01/23 06:16:04;;;;;;;;;;;-3.30;78.70;;;;;;5025027;28;88487;-42
2022/01/23 06:18:29;;;;;;;;;;;-3.30;78.60;;;;;;5025110;28;86714;-42
2022/01/23 06:20:55;;;;;;;;;;;-3.30;78.70;;;;;;5025407;28;87947;-42
2022/01/23 06:23:20;;;;;;;;;;;-3.40;78.70;;;;;;5025218;28;88614;-43
2022/01/23 06:25:47;;;;;;;;;;;-3.40;78.80;;;;;;5025033;28;87091;-43
2022/01/23 06:28:21;;;;;;;;;;;-3.40;78.70;;;;;;5025139;28;89153;-42
2022/01/23 06:30:46;;;;;;;;;;;-3.40;78.70;;;;;;5027117;28;90404;-43
2022/01/23 06:33:12;;;;;;;;;;;-3.30;78.70;;;;;;5024943;28;90198;-42
2022/01/23 06:35:37;;;;;;;;;;;-3.40;78.50;;;;;;5024925;28;88091;-43
2022/01/23 06:38:03;;;;;;;;;;;-3.30;78.40;;;;;;5023497;28;87216;-43
2022/01/23 06:40:28;;;;;;;;;;;-3.40;78.50;;;;;;5025134;28;88983;-43
2022/01/23 06:42:54;;;;;;;;;;;-3.40;78.40;;;;;;5024228;28;89658;-42
2022/01/23 06:45:19;;;;;;;;;;;-3.40;78.50;;;;;;5024779;28;87124;-42
2022/01/23 06:47:45;;;;;;;;;;;-3.40;78.50;;;;;;5025354;28;88918;-42
2022/01/23 06:50:11;;;;;;;;;;;-3.40;78.30;;;;;;5024538;28;88189;-42
2022/01/23 06:52:36;;;;;;;;;;;-3.40;78.40;;;;;;5027469;28;87118;-42
2022/01/23 06:55:02;;;;;;;;;;;-3.40;78.50;;;;;;5023666;28;90710;-42
2022/01/23 06:57:27;;;;;;;;;;;-3.40;78.50;;;;;;5024569;28;87158;-42
2022/01/23 06:59:53;;;;;;;;;;;-3.40;78.60;;;;;;5024660;28;88518;-42
2022/01/23 07:02:18;;;;;;;;;;;-3.40;78.40;;;;;;5024558;28;87171;-42
2022/01/23 07:04:44;;;;;;;;;;;-3.40;78.50;;;;;;5023039;28;86986;-42
2022/01/23 07:07:09;;;;;;;;;;;-3.40;78.50;;;;;;5023600;28;89032;-42
2022/01/23 07:09:35;;;;;;;;;;;-3.40;78.60;;;;;;5023764;28;88597;-42
2022/01/23 07:12:00;;;;;;;;;;;-3.40;78.70;;;;;;5025092;28;86395;-43
2022/01/23 07:14:26;;;;;;;;;;;-3.40;78.60;;;;;;5026969;28;88146;-42
2022/01/23 07:16:51;;;;;;;;;;;-3.50;78.60;;;;;;5024639;28;87184;-43
2022/01/23 07:19:17;;;;;;;;;;;-3.50;78.70;;;;;;5023699;28;88997;-43
2022/01/23 07:21:42;;;;;;;;;;;-3.40;78.60;;;;;;5024193;28;87920;-43
2022/01/23 07:24:09;;;;;;;;;;;-3.40;78.60;;;;;;5024073;28;87216;-43
2022/01/23 07:26:35;;;;;;;;;;;-3.50;78.60;;;;;;5024477;28;88716;-43
2022/01/23 07:29:03;;;;;;;;;;;-3.50;78.60;;;;;;5023775;28;89674;-43
2022/01/23 07:34:02;;;;;;;;;;;-3.50;78.70;;;;;;5023389;28;87224;-43
2022/01/23 07:36:27;;;;;;;;;;;-3.50;78.70;;;;;;5027015;28;88589;-43
2022/01/23 07:38:53;;;;;;;;;;;-3.50;78.80;;;;;;5023813;28;88126;-43
2022/01/23 07:41:18;;;;;;;;;;;-3.50;78.80;;;;;;5023064;28;88420;-43
2022/01/23 07:43:44;;;;;;;;;;;-3.50;78.90;;;;;;5023538;28;88063;-42
2022/01/23 07:46:10;;;;;;;;;;;-3.50;78.90;;;;;;5024152;28;88410;-42
2022/01/23 07:48:35;;;;;;;;;;;-3.50;79.10;;;;;;5023502;28;89188;-42
2022/01/23 07:51:01;;;;;;;;;;;-3.60;79.00;;;;;;5023991;28;87149;-42
2022/01/23 07:53:26;;;;;;;;;;;-3.60;79.00;;;;;;5023586;28;89000;-42
2022/01/23 07:55:52;;;;;;;;;;;-3.60;79.20;;;;;;5023421;28;89562;-42
2022/01/23 07:58:18;;;;;;;;;;;-3.60;79.20;;;;;;5026533;28;87105;-42
2022/01/23 08:00:44;;;;;;;;;;;-3.60;79.10;;;;;;5023931;28;88745;-42
2022/01/23 08:03:10;;;;;;;;;;;-3.60;79.20;;;;;;5023693;28;87009;-42
2022/01/23 08:05:36;;;;;;;;;;;-3.60;79.20;;;;;;5023679;28;88806;-42
2022/01/23 08:08:01;;;;;;;;;;;-3.60;79.20;;;;;;5022633;28;89405;-42
2022/01/23 08:10:27;;;;;;;;;;;-3.60;79.20;;;;;;5023419;28;86968;-42
2022/01/23 08:12:52;;;;;;;;;;;-3.60;79.20;;;;;;5023527;28;87761;-42
2022/01/23 08:15:18;;;;;;;;;;;-3.60;79.30;;;;;;5022956;28;89827;-42
2022/01/23 08:17:44;;;;;;;;;;;-3.60;79.20;;;;;;5026492;28;87065;-42
2022/01/23 08:20:10;;;;;;;;;;;-3.60;79.20;;;;;;5023174;28;89790;-42
2022/01/23 08:22:35;;;;;;;;;;;-3.60;79.30;;;;;;5023605;28;87173;-42
2022/01/23 08:25:02;;;;;;;;;;;-3.60;79.40;;;;;;5023816;28;89186;-42
2022/01/23 08:27:28;;;;;;;;;;;-3.60;79.30;;;;;;5022870;28;89205;-42
2022/01/23 08:29:53;;;;;;;;;;;-3.60;79.20;;;;;;5023421;28;87118;-42
2022/01/23 08:32:19;;;;;;;;;;;-3.60;79.30;;;;;;5022662;28;87961;-42
2022/01/23 08:34:45;;;;;;;;;;;-3.60;79.30;;;;;;5022693;28;89565;-42
2022/01/23 08:37:10;;;;;;;;;;;-3.60;79.40;;;;;;5023173;28;87248;-42
2022/01/23 08:39:37;;;;;;;;;;;-3.60;79.30;;;;;;5025669;28;88976;-42
2022/01/23 08:42:04;;;;;;;;;;;-3.60;79.30;;;;;;5022565;28;86869;-43
2022/01/23 08:44:30;;;;;;;;;;;-3.60;79.30;;;;;;5023206;28;89228;-42
2022/01/23 08:46:55;;;;;;;;;;;-3.60;79.10;;;;;;5022772;28;89415;-42
2022/01/23 08:49:22;;;;;;;;;;;-3.60;79.30;;;;;;5023505;28;86436;-42
2022/01/23 08:51:48;;;;;;;;;;;-3.60;79.30;;;;;;5023055;28;87841;-42
2022/01/23 08:54:14;;;;;;;;;;;-3.60;79.80;;;;;;5022772;28;87970;-42
2022/01/23 08:56:40;;;;;;;;;;;-3.60;79.20;;;;;;5022194;28;88067;-42
2022/01/23 08:59:06;;;;;;;;;;;-3.60;79.00;;;;;;5022882;28;88949;-42
2022/01/23 09:01:32;;;;;;;;;;;-3.50;78.70;;;;;;5025374;28;89780;-42
2022/01/23 09:03:58;;;;;;;;;;;-3.40;78.50;;;;;;5023088;28;87424;-42
2022/01/23 09:06:23;;;;;;;;;;;-3.40;78.50;;;;;;5022381;28;89425;-42
2022/01/23 09:08:51;;;;;;;;;;;-3.40;78.40;;;;;;5022486;28;87102;-42
2022/01/23 09:14:07;;;;;;;;;;;-3.50;78.50;;;;;;5021508;28;87216;-42
2022/01/23 09:16:36;;;;;;;;;;;-3.50;78.20;;;;;;5022976;28;86890;-42
2022/01/23 09:19:02;;;;;;;;;;;-3.50;78.30;;;;;;5022476;28;88815;-42
2022/01/23 09:21:28;;;;;;;;;;;-3.50;78.40;;;;;;5021557;28;90503;-42
2022/01/23 09:23:53;;;;;;;;;;;-3.40;78.40;;;;;;5025649;28;88021;-42
2022/01/23 09:26:22;;;;;;;;;;;-3.50;78.50;;;;;;5022249;28;89293;-42
2022/01/23 09:28:48;;;;;;;;;;;-3.60;78.60;;;;;;5022606;28;87090;-42
2022/01/23 09:31:24;;;;;;;;;;;-3.60;78.70;;;;;;5025988;28;88988;-42
2022/01/23 09:33:49;;;;;;;;;;;-3.60;78.50;;;;;;5025366;28;89379;-42
2022/01/23 09:36:15;;;;;;;;;;;-3.60;78.70;;;;;;5025979;28;87171;-42
2022/01/23 09:38:40;;;;;;;;;;;-3.60;78.70;;;;;;5026753;28;86665;-42
2022/01/23 09:41:07;;;;;;;;;;;-3.50;78.50;;;;;;5025039;28;89934;-42
2022/01/23 09:43:33;;;;;;;;;;;-3.60;78.60;;;;;;5025902;28;87047;-42
2022/01/23 09:46:05;;;;;;;;;;;-3.50;78.60;;;;;;5027813;28;88980;-42
2022/01/23 09:48:32;;;;;;;;;;;-3.60;78.50;;;;;;5025955;28;87047;-42
2022/01/23 09:50:59;;;;;;;;;;;-3.60;78.80;;;;;;5025981;28;86947;-42
2022/01/23 09:53:24;;;;;;;;;;;-3.60;78.90;;;;;;5025388;28;89587;-42
2022/01/23 09:55:53;;;;;;;;;;;-3.60;78.60;;;;;;5025887;28;87140;-42
2022/01/23 09:58:18;;;;;;;;;;;-3.60;78.60;;;;;;5025443;28;88801;-42
2022/01/23 10:00:44;;;;;;;;;;;-3.70;78.80;;;;;;5025209;28;89280;-42
2022/01/23 10:03:09;;;;;;;;;;;-3.60;78.80;;;;;;5026029;28;86457;-42
2022/01/23 10:05:37;;;;;;;;;;;-3.60;78.80;;;;;;5025921;28;86842;-42
2022/01/23 10:08:02;;;;;;;;;;;-3.70;78.90;;;;;;5027949;28;89545;-42
2022/01/23 10:10:28;;;;;;;;;;;-3.70;78.90;;;;;;5024711;28;89486;-42
2022/01/23 10:12:58;;;;;;;;;;;-3.70;78.90;;;;;;5024879;28;89430;-42
2022/01/23 10:15:25;;;;;;;;;;;-3.70;78.90;;;;;;5025343;28;87139;-42
2022/01/23 10:17:52;;;;;;;;;;;-3.70;78.90;;;;;;5025219;28;88472;-42
2022/01/23 10:20:17;;;;;;;;;;;-3.70;78.90;;;;;;5024961;28;88221;-42
2022/01/23 10:22:46;;;;;;;;;;;-3.60;78.80;;;;;;5025183;28;87136;-42
2022/01/23 10:25:13;;;;;;;;;;;-3.70;78.90;;;;;;5025154;28;89274;-42
2022/01/23 10:28:02;;;;;;;;;;;-3.70;78.80;;;;;;5028056;28;88749;-42
2022/01/23 10:30:28;;;;;;;;;;;-3.70;78.90;;;;;;5025411;28;87869;-42
2022/01/23 10:33:03;;;;;;;;;;;-3.60;78.90;;;;;;5024787;28;87962;-42
2022/01/23 10:35:30;;;;;;;;;;;-3.70;78.90;;;;;;5024210;28;88083;-42
2022/01/23 10:37:56;;;;;;;;;;;-3.70;79.00;;;;;;5025236;28;88119;-42
2022/01/23 10:40:22;;;;;;;;;;;-3.60;79.10;;;;;;5023942;28;89186;-42
2022/01/23 10:48:40;;;;;;;;;;;-3.60;79.00;;;;;;5024851;28;87292;-42
2022/01/23 10:51:13;;;;;;;;;;;-3.60;79.00;;;;;;5026405;28;86996;-42
2022/01/23 10:53:58;;;;;;;;;;;-3.70;79.10;;;;;;5024866;28;88825;-42
2022/01/23 10:56:24;;;;;;;;;;;-3.60;79.10;;;;;;5024599;28;87113;-42
2022/01/23 10:59:09;;;;;;;;;;;-3.60;79.20;;;;;;5024555;28;88836;-42
2022/01/23 11:01:35;;;;;;;;;;;-3.60;79.20;;;;;;5023396;28;90422;-42
2022/01/23 11:04:13;;;;;;;;;;;-3.60;79.10;;;;;;5024847;28;87125;-42
2022/01/23 11:06:55;;;;;;;;;;;-3.60;78.90;;;;;;5024724;28;88070;-42
2022/01/23 11:09:24;;;;;;;;;;;-3.60;79.00;;;;;;5023951;28;89242;-42
2022/01/23 11:11:52;;;;;;;;;;;-3.60;79.00;;;;;;5024322;28;87111;-42
2022/01/23 11:17:22;;;;;;;;;;;-3.60;79.00;;;;;;5024684;28;87103;-42
2022/01/23 11:19:49;;;;;;;;;;;-3.60;78.80;;;;;;5024820;28;89046;-42
2022/01/23 11:22:35;;;;;;;;;;;-3.60;78.80;;;;;;5023909;28;90117;-42
2022/01/23 11:25:03;;;;;;;;;;;-3.60;79.00;;;;;;5024261;28;86985;-42
2022/01/23 11:27:33;;;;;;;;;;;-3.60;78.80;;;;;;5023602;28;88898;-42
2022/01/23 11:30:10;;;;;;;;;;;-3.60;79.00;;;;;;5023743;28;89505;-42
2022/01/23 11:32:40;;;;;;;;;;;-3.60;78.90;;;;;;5024141;28;87122;-42
2022/01/23 11:35:09;;;;;;;;;;;-3.60;78.90;;;;;;5023727;28;90386;-42
2022/01/23 11:37:36;;;;;;;;;;;-3.60;79.00;;;;;;5026512;28;88562;-42
2022/01/23 11:40:22;;;;;;;;;;;-3.60;78.90;;;;;;5024140;28;87898;-42
2022/01/23 11:53:54;;;;;;;;;;;-3.50;79.00;;;;;;5022868;28;87943;-42
2022/01/23 11:56:23;;;;;;;;;;;-3.50;78.60;;;;;;5023755;28;89623;-42
2022/01/23 11:58:50;;;;;;;;;;;-3.40;78.60;;;;;;5023140;28;89503;-42
2022/01/23 12:01:17;;;;;;;;;;;-3.40;78.50;;;;;;5026566;28;87144;-42
2022/01/23 12:04:01;;;;;;;;;;;-3.40;78.60;;;;;;5023561;28;87646;-42
2022/01/23 12:06:26;;;;;;;;;;;-3.40;78.50;;;;;;5023227;28;87291;-42
2022/01/23 12:08:52;;;;;;;;;;;-3.40;78.40;;;;;;5023418;28;89198;-42
2022/01/23 12:11:38;;;;;;;;;;;-3.40;78.50;;;;;;5023945;28;87257;-42
2022/01/23 12:16:57;;;;;;;;;;;-3.40;78.70;;;;;;5023401;28;87290;-42
2022/01/23 12:19:23;;;;;;;;;;;-3.50;78.90;;;;;;5022218;28;90536;-42
2022/01/23 12:21:52;;;;;;;;;;;-3.40;78.70;;;;;;5023722;28;87098;-42
2022/01/23 12:24:18;;;;;;;;;;;-3.50;78.70;;;;;;5025839;28;88899;-42
2022/01/23 12:26:44;;;;;;;;;;;-3.50;78.80;;;;;;5023176;28;87101;-42
2022/01/23 12:29:11;;;;;;;;;;;-3.50;78.80;;;;;;5023201;28;89071;-42
2022/01/23 12:31:37;;;;;;;;;;;-3.50;78.90;;;;;;5022809;28;89358;-42
2022/01/23 12:34:03;;;;;;;;;;;-3.50;79.00;;;;;;5023109;28;86982;-42
2022/01/23 12:36:33;;;;;;;;;;;-3.60;79.20;;;;;;5023817;28;88892;-42
2022/01/23 12:39:19;;;;;;;;;;;-3.60;79.20;;;;;;5022841;28;88310;-42
2022/01/23 12:41:50;;;;;;;;;;;-3.50;79.20;;;;;;5022371;28;87185;-42
2022/01/23 12:44:22;;;;;;;;;;;-3.60;79.20;;;;;;5025250;28;89013;-42
2022/01/23 12:46:52;;;;;;;;;;;-3.60;79.30;;;;;;5023004;28;87010;-42
2022/01/23 12:49:31;;;;;;;;;;;-3.60;79.40;;;;;;5022992;28;88769;-42
2022/01/23 12:51:57;;;;;;;;;;;-3.60;79.50;;;;;;5022515;28;89539;-42
2022/01/23 12:54:26;;;;;;;;;;;-3.60;79.40;;;;;;5022878;28;87113;-42
2022/01/23 12:56:52;;;;;;;;;;;-3.60;79.50;;;;;;5023247;28;88716;-42
2022/01/23 12:59:26;;;;;;;;;;;-3.60;79.50;;;;;;5022636;28;89117;-42
2022/01/23 13:01:59;;;;;;;;;;;-3.60;79.50;;;;;;5023520;28;86193;-42
2022/01/23 13:04:29;;;;;;;;;;;-3.60;79.50;;;;;;5024030;28;88264;-42
2022/01/23 13:06:59;;;;;;;;;;;-3.60;79.50;;;;;;5028769;28;89520;-42
2022/01/23 13:12:06;;;;;;;;;;;-3.60;79.60;;;;;;5026113;28;88062;-42
2022/01/23 13:14:38;;;;;;;;;;;-3.60;79.60;;;;;;5026396;28;86962;-42
2022/01/23 13:30:49;;;;;;;;;;;-3.60;79.80;;;;;;5027289;28;86870;-42
2022/01/23 13:33:20;;;;;;;;;;;-3.60;79.80;;;;;;5024314;28;91493;-42
2022/01/23 13:35:50;;;;;;;;;;;-3.60;79.80;;;;;;5025411;28;87927;-42
2022/01/23 13:38:17;;;;;;;;;;;-3.60;79.80;;;;;;5025801;28;89495;-42
2022/01/23 13:40:43;;;;;;;;;;;-3.60;79.70;;;;;;5024987;28;89348;-42
2022/01/23 13:54:04;;;;;;;;;;;-3.60;79.90;;;;;;5029091;28;86646;-42
2022/01/23 13:59:34;;;;;;;;;;;-3.60;79.90;;;;;;5025845;28;86984;-42
2022/01/23 14:04:35;;;;;;;;;;;-3.60;80.00;;;;;;5024106;28;87025;-42
2022/01/23 14:07:01;;;;;;;;;;;-3.60;79.80;;;;;;5025335;28;89063;-42
2022/01/23 14:09:27;;;;;;;;;;;-3.60;79.80;;;;;;5024963;28;89856;-42
2022/01/23 14:11:53;;;;;;;;;;;-3.60;79.90;;;;;;5024940;28;87205;-42
2022/01/23 14:14:26;;;;;;;;;;;-3.60;79.90;;;;;;5025309;28;89033;-42
2022/01/23 14:16:53;;;;;;;;;;;-3.60;80.60;;;;;;5027969;28;89962;-42
2022/01/23 14:19:25;;;;;;;;;;;-3.60;79.90;;;;;;5025747;28;88997;-42
2022/01/23 14:21:56;;;;;;;;;;;-3.60;80.10;;;;;;5024845;28;88164;-42
2022/01/23 14:24:24;;;;;;;;;;;-3.60;80.00;;;;;;5025035;28;86954;-42
2022/01/23 14:26:59;;;;;;;;;;;-3.60;80.00;;;;;;5024902;28;88025;-42
2022/01/23 14:29:25;;;;;;;;;;;-3.60;80.00;;;;;;5024752;28;89363;-42
2022/01/23 14:32:04;;;;;;;;;;;-3.60;80.00;;;;;;5024958;28;87047;-42
2022/01/23 14:34:29;;;;;;;;;;;-3.60;80.00;;;;;;5025171;28;88796;-42
2022/01/23 14:36:56;;;;;;;;;;;-3.60;80.00;;;;;;5024516;28;89793;-42
2022/01/23 14:39:23;;;;;;;;;;;-3.60;80.10;;;;;;5027975;28;87041;-42
2022/01/23 14:41:49;;;;;;;;;;;-3.60;80.00;;;;;;5024037;28;89597;-42
2022/01/23 14:44:15;;;;;;;;;;;-3.60;80.20;;;;;;5025294;28;86239;-42
2022/01/23 14:46:40;;;;;;;;;;;-3.60;80.20;;;;;;5024754;28;88126;-42
2022/01/23 14:49:10;;;;;;;;;;;-3.60;80.20;;;;;;5024242;28;89110;-42
2022/01/23 14:51:37;;;;;;;;;;;-3.60;80.20;;;;;;5023872;28;88138;-42
2022/01/23 14:54:02;;;;;;;;;;;-3.60;80.20;;;;;;5024657;28;89676;-42
2022/01/23 14:56:29;;;;;;;;;;;-3.60;80.20;;;;;;5024463;28;89542;-42
2022/01/23 14:58:55;;;;;;;;;;;-3.60;80.30;;;;;;5027508;28;86929;-42
2022/01/23 15:01:20;;;;;;;;;;;-3.60;80.20;;;;;;5024310;28;89260;-42
2022/01/23 15:03:52;;;;;;;;;;;-3.60;80.30;;;;;;5024618;28;87065;-42
2022/01/23 15:06:24;;;;;;;;;;;-3.60;80.30;;;;;;5024317;28;89452;-42
2022/01/23 15:08:50;;;;;;;;;;;-3.60;80.30;;;;;;5024873;28;88898;-42
2022/01/23 15:11:15;;;;;;;;;;;-3.60;80.20;;;;;;5024669;28;87281;-42
2022/01/23 15:13:41;;;;;;;;;;;-3.60;80.20;;;;;;5024456;28;89113;-42
2022/01/23 15:16:06;;;;;;;;;;;-3.60;80.30;;;;;;5023198;28;90677;-42
2022/01/23 15:18:33;;;;;;;;;;;-3.60;80.40;;;;;;5024212;28;88010;-42
2022/01/23 15:20:59;;;;;;;;;;;-3.60;80.30;;;;;;5026679;28;88697;-42
2022/01/23 15:23:24;;;;;;;;;;;-3.60;80.30;;;;;;5024137;28;86917;-42
2022/01/23 15:25:50;;;;;;;;;;;-3.60;80.40;;;;;;5024319;28;88396;-42
2022/01/23 15:28:16;;;;;;;;;;;-3.60;80.40;;;;;;5023113;28;89681;-42
2022/01/23 15:30:42;;;;;;;;;;;-3.60;80.30;;;;;;5023963;28;87121;-42
2022/01/23 15:33:08;;;;;;;;;;;-3.60;80.40;;;;;;5024639;28;88785;-42
2022/01/23 15:35:34;;;;;;;;;;;-3.60;80.40;;;;;;5023728;28;88415;-42
2022/01/23 15:38:00;;;;;;;;;;;-3.60;80.40;;;;;;5023969;28;87223;-42
2022/01/23 15:40:25;;;;;;;;;;;-3.60;80.30;;;;;;5023366;28;88030;-42
2022/01/23 15:42:52;;;;;;;;;;;-3.60;80.40;;;;;;5026373;28;90045;-42
2022/01/23 15:45:18;;;;;;;;;;;-3.60;80.40;;;;;;5023940;28;88854;-42
2022/01/23 15:47:44;;;;;;;;;;;-3.60;80.40;;;;;;5023608;28;88204;-42
2022/01/23 15:50:11;;;;;;;;;;;-3.60;80.50;;;;;;5022310;28;87194;-42
2022/01/23 15:52:37;;;;;;;;;;;-3.60;80.40;;;;;;5023672;28;88539;-42
2022/01/23 15:55:03;;;;;;;;;;;-3.60;80.50;;;;;;5023324;28;89422;-42
2022/01/23 15:57:29;;;;;;;;;;;-3.60;80.40;;;;;;5024173;28;86347;-42
2022/01/23 15:59:54;;;;;;;;;;;-3.60;80.50;;;;;;5024025;28;86890;-42
2022/01/23 16:02:20;;;;;;;;;;;-3.60;80.40;;;;;;5023312;28;89656;-42
2022/01/23 16:04:45;;;;;;;;;;;-3.60;80.40;;;;;;5025686;28;88104;-42
2022/01/23 16:07:16;;;;;;;;;;;-3.60;80.50;;;;;;5023254;28;89876;-42
2022/01/23 16:09:42;;;;;;;;;;;-3.60;80.60;;;;;;5023643;28;86964;-42
2022/01/23 16:12:08;;;;;;;;;;;-3.60;80.60;;;;;;5023767;28;87427;-42
2022/01/23 16:14:33;;;;;;;;;;;-3.60;80.60;;;;;;5023130;28;89704;-42
2022/01/23 16:16:59;;;;;;;;;;;-3.60;80.60;;;;;;5023640;28;87250;-42
2022/01/23 16:19:25;;;;;;;;;;;-3.60;80.50;;;;;;5023308;28;89037;-42
2022/01/23 16:21:54;;;;;;;;;;;-3.60;80.50;;;;;;5023733;28;87155;-42
2022/01/23 16:24:21;;;;;;;;;;;-3.60;80.50;;;;;;5023435;28;86882;-42
2022/01/23 16:26:48;;;;;;;;;;;-3.60;80.30;;;;;;5026010;28;87729;-42
2022/01/23 16:29:14;;;;;;;;;;;-3.60;80.60;;;;;;5022641;28;88070;-42
2022/01/23 16:31:39;;;;;;;;;;;-3.60;80.50;;;;;;5023590;28;88295;-42
2022/01/23 16:34:05;;;;;;;;;;;-3.60;80.60;;;;;;5022706;28;89197;-42
2022/01/23 16:36:32;;;;;;;;;;;-3.60;80.50;;;;;;5023374;28;87128;-42
2022/01/23 16:38:57;;;;;;;;;;;-3.60;80.50;;;;;;5023460;28;88757;-42
2022/01/23 16:41:23;;;;;;;;;;;-3.60;80.60;;;;;;5025867;28;89635;-42
2022/01/23 16:43:49;;;;;;;;;;;-3.60;80.40;;;;;;5026648;28;87146;-42
2022/01/23 16:46:16;;;;;;;;;;;-3.60;80.50;;;;;;5029801;28;88882;-42
2022/01/23 16:48:41;;;;;;;;;;;-3.60;80.40;;;;;;5026758;28;87160;-42
2022/01/23 16:51:07;;;;;;;;;;;-3.60;80.70;;;;;;5026740;28;88963;-42
2022/01/23 16:53:32;;;;;;;;;;;-3.60;80.40;;;;;;5025858;28;89493;-42
2022/01/23 16:55:58;;;;;;;;;;;-3.60;80.30;;;;;;5026561;28;86844;-42
2022/01/23 16:58:28;;;;;;;;;;;-3.60;80.30;;;;;;5026622;28;88852;-42
2022/01/23 17:00:53;;;;;;;;;;;-3.60;80.60;;;;;;5026048;28;88786;-42
2022/01/23 17:03:19;;;;;;;;;;;-3.60;80.40;;;;;;5026279;28;87216;-42
2022/01/23 17:05:45;;;;;;;;;;;-3.50;80.30;;;;;;5026522;28;88874;-42
2022/01/23 17:08:14;;;;;;;;;;;-3.60;80.50;;;;;;5028899;28;89461;-42
2022/01/23 17:10:40;;;;;;;;;;;-3.60;80.40;;;;;;5026891;28;87636;-42
2022/01/23 17:13:06;;;;;;;;;;;-3.60;80.60;;;;;;5025974;28;89345;-42
2022/01/23 17:15:31;;;;;;;;;;;-3.60;80.30;;;;;;5026331;28;86933;-42
2022/01/23 17:17:57;;;;;;;;;;;-3.60;80.90;;;;;;5025474;28;88853;-42
2022/01/23 17:20:23;;;;;;;;;;;-3.50;80.40;;;;;;5026196;28;90114;-42
2022/01/23 17:22:49;;;;;;;;;;;-3.60;80.40;;;;;;5026165;28;87141;-42
2022/01/23 17:25:15;;;;;;;;;;;-3.60;80.30;;;;;;5026202;28;89348;-42
2022/01/23 17:27:41;;;;;;;;;;;-3.60;80.30;;;;;;5025769;28;89743;-42
2022/01/23 17:30:06;;;;;;;;;;;-3.60;80.20;;;;;;5028726;28;86931;-42
2022/01/23 17:32:32;;;;;;;;;;;-3.60;80.20;;;;;;5025395;28;91164;-42
2022/01/23 17:34:57;;;;;;;;;;;-3.60;80.20;;;;;;5026501;28;86467;-42
2022/01/23 17:37:23;;;;;;;;;;;-3.60;80.20;;;;;;5025958;28;88767;-42
2022/01/23 17:39:48;;;;;;;;;;;-3.60;80.30;;;;;;5025581;28;88055;-42
2022/01/23 17:42:14;;;;;;;;;;;-3.60;80.50;;;;;;5024674;28;88113;-42
2022/01/23 17:44:44;;;;;;;;;;;-3.60;80.60;;;;;;5025688;28;89753;-42